• Join FlightAware (Why Join?)
  • Login
  • US Flag 
Trick or treat! (Boo!!) 
11:18AM EDT


 

Airport Tracker/Info


-or-


 

Live Flight TrackerFlight Track Log ✈ UPS2612 ✈ 04-Apr-2013 ✈ KSDF - KSLC

Flight Track Log - Related Links

Times and Time Zones

All times are in EDT time to prevent confusion due to time zone crossing. See the UPS2612 flight status page for this flight to view local times or setup timezone preferences in your user account.

Time Position Orientation Groundspeed Altitude Reporting Facility
EDT Latitude Longitude Course Direction KTS MPH feet Rate Location/Type
03:29PM 38.1947 -85.7517 337° Northwest 171 197 1,700  Level FAA TRACON SMA TRACON (SMA)
03:29PM 38.2083 -85.7592 337° Northwest 174 200 2,200 1,320 Climbing FAA TRACON SMA TRACON (SMA)
03:30PM 38.2253 -85.7736 326° Northwest 186 214 2,600 1,320 Climbing FAA TRACON SMA TRACON (SMA)
03:30PM 38.2456 -85.7881 331° Northwest 211 243 3,200 1,680 Climbing FAA TRACON SMA TRACON (SMA)
03:30PM 38.2622 -85.8000 331° Northwest 224 258 3,800 1,920 Climbing FAA TRACON SMA TRACON (SMA)
03:31PM 38.2844 -85.8439 303° West 261 300 5,000 2,160 Climbing FAA TRACON SMA TRACON (SMA)
03:31PM 38.2769 -85.8781 254° West 265 305 5,900 2,580 Climbing FAA TRACON SMA TRACON (SMA)
03:32PM 38.2650 -85.9028 238° Southwest 267 307 6,800 2,580 Climbing FAA TRACON SMA TRACON (SMA)
03:32PM 38.2475 -85.9211 219° Southwest 270 311 7,600 2,520 Climbing FAA TRACON SMA TRACON (SMA)
03:32PM 38.2247 -85.9439 218° Southwest 272 313 8,500 2,400 Climbing FAA TRACON SMA TRACON (SMA)
03:33PM 38.2064 -85.9636 220° Southwest 278 320 9,200 2,220 Climbing FAA TRACON SMA TRACON (SMA)
03:33PM 38.1881 -85.9844 222° Southwest 285 328 10,000 2,040 Climbing FAA TRACON SMA TRACON (SMA)
03:33PM 38.1647 -86.0114 222° Southwest 294 338 10,600 1,320 Climbing FAA TRACON SMA TRACON (SMA)
03:34PM 38.1444 -86.0342 221° Southwest 310 357 10,900 1,020 Climbing FAA TRACON SMA TRACON (SMA)
03:34PM 38.1231 -86.0583 222° Southwest 326 375 11,300 1,800 Climbing FAA TRACON SMA TRACON (SMA)
03:34PM 38.0961 -86.0903 223° Southwest 342 394 12,100 2,400 Climbing FAA TRACON SMA TRACON (SMA)
03:35PM 38.0803 -86.1222 238° Southwest 350 403 12,900 2,100 Climbing FAA TRACON SMA TRACON (SMA)
03:35PM 38.0711 -86.1583 252° West 353 406 13,500 2,220 Climbing FAA TRACON SMA TRACON (SMA)
03:35PM 38.0622 -86.2058 257° West 358 412 14,400 2,460 Climbing FAA TRACON SMA TRACON (SMA)
03:36PM 38.0553 -86.2439 257° West 360 414 15,200 2,700 Climbing FAA TRACON SMA TRACON (SMA)
03:36PM 38.0497 -86.2922 262° West 361 415 16,200 2,520 Climbing FAA TRACON SMA TRACON (SMA)
03:36PM 38.0467 -86.3308 264° West 360 414 16,900 2,100 Climbing FAA TRACON SMA TRACON (SMA)
03:37PM 38.0439 -86.3697 265° West 360 414 17,600 1,920 Climbing FAA TRACON SMA TRACON (SMA)
03:37PM 38.0414 -86.4089 265° West 361 415 18,200 2,040 Climbing FAA TRACON SMA TRACON (SMA)
03:37PM 38.0375 -86.4578 264° West 363 418 19,000 2,100 Climbing FAA TRACON SMA TRACON (SMA)
03:38PM 38.0344 -86.4972 264° West 363 418 19,600 1,800 Climbing FAA TRACON SMA TRACON (SMA)
03:38PM 38.0319 -86.5364 265° West 364 419 20,200 1,980 Climbing FAA TRACON SMA TRACON (SMA)
03:38PM 38.0281 -86.5858 264° West 366 421 20,900 1,800 Climbing FAA TRACON SMA TRACON (SMA)
03:39PM 38.0253 -86.6256 265° West 368 423 21,400 1,440 Climbing FAA TRACON SMA TRACON (SMA)
03:39PM 38.0253 -86.6658 270° West 371 427 21,900 1,620 Climbing FAA TRACON SMA TRACON (SMA)
03:39PM 38.0317 -86.7164 279° West 376 433 22,500 1,620 Climbing FAA TRACON SMA TRACON (SMA)
03:40PM 38.0397 -86.7564 284° West 381 438 23,000 1,200 Climbing FAA TRACON SMA TRACON (SMA)
03:40PM 38.0486 -86.7972 285° West 386 444 23,400 1,500 Climbing FAA TRACON SMA TRACON (SMA)
03:40PM 38.0603 -86.8589 284° West 390 449 24,100 1,620 Climbing FAA TRACON SMA TRACON (SMA)
03:41PM 38.0656 -86.8897 282° West 390 449 24,400 1,140 Climbing FAA TRACON SMA TRACON (SMA)
03:41PM 38.0744 -86.9319 285° West 396 456 24,800 1,320 Climbing FAA TRACON SMA TRACON (SMA)
03:41PM 38.0850 -86.9847 284° West 401 461 25,300 1,380 Climbing FAA TRACON SMA TRACON (SMA)
03:42PM 38.0950 -87.0583 280° West 405 466 26,200 1,440 Climbing Indianapolis Center
03:43PM 38.1236 -87.2042 284° West 417 480 27,700 1,440 Climbing Indianapolis Center
03:44PM 38.1511 -87.3536 283° West 426 490 29,200 1,440 Climbing Indianapolis Center
03:45PM 38.1797 -87.5050 284° West 436 502 30,700 1,740 Climbing Indianapolis Center
03:46PM 38.2081 -87.6581 283° West 441 507 32,800 1,980 Climbing Indianapolis Center
03:47PM 38.2344 -87.8067 283° West 431 496 34,900 1,500 Climbing Indianapolis Center
03:48PM 38.2631 -87.9514 284° West 424 488 36,000 480 Climbing Indianapolis Center
03:49PM 38.2947 -88.1244 283° West 418 481 36,000  Level Indianapolis Center
03:50PM 38.3189 -88.2678 282° West 414 476 36,000  Level Indianapolis Center
03:51PM 38.3450 -88.4122 283° West 416 479 36,000  Level Indianapolis Center
03:52PM 38.3697 -88.5556 282° West 414 476 36,000  Level Indianapolis Center
03:54PM 38.3997 -88.7297 282° West 421 484 36,000  Level Kansas City Center
03:55PM 38.4247 -88.8733 283° West 418 481 36,000  Level Kansas City Center
03:56PM 38.4519 -89.0294 283° West 420 483 36,000  Level Kansas City Center
03:57PM 38.4772 -89.1750 283° West 421 484 36,000  Level Kansas City Center
03:58PM 38.5039 -89.3319 282° West 421 484 36,000  Level Kansas City Center
03:59PM 38.5289 -89.4781 282° West 423 487 36,000  Level Kansas City Center
04:00PM 38.5536 -89.6253 282° West 424 488 36,000  Level Kansas City Center
04:01PM 38.5700 -89.7736 278° West 427 491 36,000  Level Kansas City Center
04:02PM 38.5692 -89.9214 270° West 419 482 36,000  Level Kansas City Center
04:03PM 38.5686 -90.0692 270° West 417 480 36,000  Level Kansas City Center
04:04PM 38.5686 -90.2197 270° West 419 482 36,000  Level Kansas City Center
04:05PM 38.5889 -90.3778 279° West 424 488 36,000  Level Kansas City Center
04:06PM 38.6181 -90.5247 284° West 425 489 36,000  Level Kansas City Center
04:07PM 38.6494 -90.7008 283° West 424 488 36,000  Level Kansas City Center
04:08PM 38.6717 -90.8489 281° West 425 489 36,000  Level Kansas City Center
04:09PM 38.6972 -90.9947 283° West 424 488 36,000  Level Kansas City Center
04:10PM 38.7225 -91.1383 283° West 420 483 36,000  Level Kansas City Center
04:11PM 38.7472 -91.2817 283° West 416 479 36,000  Level Kansas City Center
04:12PM 38.7717 -91.4244 282° West 413 475 36,000  Level Kansas City Center
04:13PM 38.7964 -91.5653 283° West 410 472 36,000  Level Kansas City Center
04:14PM 38.8256 -91.7367 282° West 408 470 36,000  Level Kansas City Center
04:15PM 38.8489 -91.8758 282° West 404 465 36,000  Level Kansas City Center
04:16PM 38.8711 -92.0169 281° West 403 464 36,000  Level Kansas City Center
04:17PM 38.8953 -92.1606 282° West 406 467 36,000  Level Kansas City Center
04:18PM 38.9192 -92.3053 282° West 410 472 36,000  Level Kansas City Center
04:19PM 38.9431 -92.4533 282° West 417 480 36,000  Level Kansas City Center
04:20PM 38.9725 -92.6328 282° West 423 487 36,000  Level Kansas City Center
04:21PM 38.9958 -92.7853 281° West 429 494 36,000  Level Kansas City Center
04:22PM 39.0219 -92.9444 282° West 433 498 36,000  Level Kansas City Center
04:24PM 39.0450 -93.0969 281° West 435 501 36,000  Level Kansas City Center
04:25PM 39.0686 -93.2492 281° West 435 501 36,000  Level Kansas City Center
04:26PM 39.0928 -93.4150 281° West 435 501 36,000  Level Kansas City Center
04:27PM 39.1153 -93.5594 281° West 431 496 36,000  Level Kansas City Center
04:28PM 39.1403 -93.7236 281° West 419 482 36,000  Level Kansas City Center
04:29PM 39.1611 -93.8636 281° West 415 478 36,000  Level Kansas City Center
04:30PM 39.1842 -94.0256 280° West 412 474 36,000  Level Kansas City Center
04:31PM 39.2047 -94.1639 281° West 411 473 36,000  Level Kansas City Center
04:32PM 39.2278 -94.3261 280° West 410 472 36,000  Level Kansas City Center
04:33PM 39.2481 -94.4653 281° West 412 474 36,000  Level Kansas City Center
04:34PM 39.2714 -94.6281 281° West 413 475 36,000  Level Kansas City Center
04:35PM 39.2878 -94.7669 279° West 412 474 36,000  Level Kansas City Center
04:36PM 39.3014 -94.9333 276° West 417 480 36,000  Level Kansas City Center
04:37PM 39.3133 -95.0753 276° West 418 481 36,000  Level Kansas City Center
04:38PM 39.3258 -95.2367 276° West 419 482 36,000  Level Kansas City Center
04:39PM 39.3389 -95.3967 276° West 419 482 36,000  Level Kansas City Center
04:40PM 39.3506 -95.5431 276° West 418 481 36,000  Level Kansas City Center
04:41PM 39.3617 -95.6844 276° West 415 478 36,000  Level Kansas City Center
04:42PM 39.3728 -95.8508 275° West 416 479 36,000  Level Kansas City Center
04:43PM 39.3825 -95.9911 275° West 412 474 36,000  Level Kansas City Center
04:44PM 39.3950 -96.1550 276° West 409 471 36,000  Level Kansas City Center
04:45PM 39.4031 -96.2811 275° West 404 465 36,000  Level Kansas City Center
04:46PM 39.4153 -96.4547 275° West 405 466 36,000  Level Kansas City Center
04:47PM 39.4250 -96.5931 275° West 405 466 36,000  Level Kansas City Center
04:48PM 39.4358 -96.7531 275° West 401 461 36,000  Level Kansas City Center
04:49PM 39.4444 -96.8919 275° West 404 465 36,000  Level Kansas City Center
04:50PM 39.4544 -97.0294 275° West 402 463 36,000  Level Kansas City Center
04:51PM 39.4658 -97.1900 275° West 402 463 36,000  Level Kansas City Center
04:52PM 39.4731 -97.3281 274° West 402 463 36,000  Level Kansas City Center
04:54PM 39.4839 -97.4892 275° West 403 464 36,000  Level Kansas City Center
04:55PM 39.4947 -97.6450 275° West 401 461 36,000  Level Kansas City Center
04:56PM 39.5006 -97.7867 273° West 401 461 36,000  Level Kansas City Center
04:57PM 39.5075 -97.9206 274° West 402 463 36,000  Level Kansas City Center
04:58PM 39.5153 -98.0633 274° West 399 459 36,000  Level Kansas City Center
04:58PM 39.5225 -98.2056 274° West 400 460 36,000  Level Denver Center
04:59PM 39.5308 -98.3494 274° West 400 460 36,000  Level Denver Center
05:00PM 39.5378 -98.4944 274° West 403 464 36,000  Level Denver Center
05:02PM 39.5453 -98.6397 274° West 404 465 36,000  Level Denver Center
05:03PM 39.5519 -98.7853 273° West 403 464 36,000  Level Denver Center
05:04PM 39.5608 -98.9325 275° West 408 470 36,000  Level Denver Center
05:05PM 39.5681 -99.0778 274° West 405 466 36,000  Level Denver Center
05:06PM 39.5767 -99.2539 274° West 406 467 36,000  Level Denver Center
05:07PM 39.5828 -99.3994 273° West 405 466 36,000  Level Denver Center
05:08PM 39.5892 -99.5433 273° West 400 460 36,000  Level Denver Center
05:09PM 39.5947 -99.6858 273° West 396 456 36,000  Level Denver Center
05:10PM 39.6008 -99.8281 273° West 395 455 36,000  Level Denver Center
05:11PM 39.6067 -99.9878 273° West 393 452 36,000  Level Denver Center
05:12PM 39.6122 -100.1208 273° West 387 445 36,000  Level Denver Center
05:13PM 39.6172 -100.2775 272° West 389 448 36,000  Level Denver Center
05:14PM 39.6225 -100.4125 273° West 390 449 36,000  Level Denver Center
05:15PM 39.6272 -100.5467 273° West 391 450 36,000  Level Denver Center
05:16PM 39.6325 -100.7039 273° West 390 449 36,000  Level Denver Center
05:17PM 39.6361 -100.8417 272° West 395 455 36,000  Level Denver Center
05:18PM 39.6417 -101.0028 273° West 399 459 36,000  Level Denver Center
05:19PM 39.6447 -101.1414 272° West 401 461 36,000  Level Denver Center
05:20PM 39.6500 -101.3044 272° West 404 465 36,000  Level Denver Center
05:21PM 39.6536 -101.4456 272° West 406 467 36,000  Level Denver Center
05:22PM 39.6569 -101.6064 272° West 401 461 36,000  Level Denver Center
05:23PM 39.6608 -101.7450 272° West 401 461 36,000  Level Denver Center
05:24PM 39.6644 -101.9044 272° West 396 456 36,100 420 Climbing Denver Center
05:25PM 39.6675 -102.0422 272° West 398 458 36,900 780 Climbing Denver Center
05:26PM 39.6703 -102.2019 271° West 397 457 37,800 480 Climbing Denver Center
05:27PM 39.6744 -102.3406 272° West 400 460 38,000 60 Climbing Denver Center
05:28PM 39.6758 -102.4794 271° West 402 463 38,000  Level Denver Center
05:29PM 39.6789 -102.6411 271° West 401 461 38,000  Level Denver Center
05:30PM 39.6817 -102.7839 271° West 400 460 38,000  Level Denver Center
05:31PM 39.6839 -102.9278 271° West 398 458 38,000  Level Denver Center
05:33PM 39.6844 -103.0711 270° West 396 456 38,000  Level Denver Center
05:34PM 39.6878 -103.2394 272° West 397 457 38,000  Level Denver Center
05:35PM 39.6892 -103.3817 271° West 394 453 38,000  Level Denver Center
05:36PM 39.6906 -103.5261 271° West 398 458 38,000  Level Denver Center
05:37PM 39.6914 -103.6708 270° West 399 459 38,000  Level Denver Center
05:38PM 39.6925 -103.8186 271° West 408 470 38,000  Level Denver Center
05:39PM 39.6919 -103.9633 270° West 403 464 38,000  Level Denver Center
05:40PM 39.6914 -104.1103 270° West 402 463 38,000  Level Denver Center
05:41PM 39.6997 -104.2764 274° West 395 455 38,000  Level Denver Center
05:42PM 39.7153 -104.4192 278° West 394 453 38,000  Level Denver Center
05:43PM 39.7319 -104.5592 279° West 394 453 38,000  Level Denver Center
05:44PM 39.7475 -104.7000 278° West 397 457 38,000  Level Denver Center
05:45PM 39.7647 -104.8406 279° West 393 452 38,000  Level Denver Center
05:46PM 39.7822 -105.0056 278° West 391 450 38,100  Climbing Denver Center
05:47PM 39.7975 -105.1469 278° West 392 451 38,000 -60 Descending Denver Center
05:48PM 39.8128 -105.2867 278° West 390 449 38,000  Level Denver Center
05:49PM 39.8272 -105.4264 278° West 383 441 38,000  Level Denver Center
05:50PM 39.8428 -105.5636 278° West 381 438 38,000  Level Denver Center
05:51PM 39.8553 -105.7025 277° West 382 440 38,000  Level Denver Center
05:52PM 39.8725 -105.8578 278° West 367 422 38,000  Level Denver Center
05:53PM 39.8869 -105.9942 278° West 375 432 38,000  Level Denver Center
05:54PM 39.9003 -106.1303 277° West 377 434 38,000  Level Denver Center
05:55PM 39.9139 -106.2678 277° West 379 436 38,000  Level Denver Center
05:56PM 39.9272 -106.4061 277° West 382 440 38,000  Level Denver Center
05:57PM 39.9408 -106.5361 278° West 385 443 38,000  Level Denver Center
05:58PM 39.9572 -106.7042 277° West 386 444 38,000  Level Denver Center
05:59PM 39.9694 -106.8356 277° West 383 441 38,000  Level Denver Center
06:00PM 39.9817 -106.9672 277° West 383 441 38,000  Level Denver Center
06:01PM 39.9956 -107.1211 277° West 383 441 38,000  Level Denver Center
06:03PM 40.0081 -107.2522 277° West 382 440 38,000  Level Denver Center
06:04PM 40.0217 -107.4067 277° West 384 442 38,000  Level Denver Center
06:05PM 40.0336 -107.5381 277° West 382 440 38,000  Level Denver Center
06:06PM 40.0475 -107.6914 277° West 382 440 38,000  Level Denver Center
06:07PM 40.0600 -107.8231 277° West 384 442 38,000  Level Denver Center
06:08PM 40.0736 -107.9975 276° West 382 440 38,000  Level Denver Center
06:09PM 40.0783 -108.1508 272° West 380 437 38,000  Level Denver Center
06:10PM 40.0853 -108.2828 274° West 381 438 38,000  Level Denver Center
06:11PM 40.0911 -108.4383 273° West 383 441 38,000  Level Denver Center
06:12PM 40.0964 -108.5692 273° West 381 438 38,000  Level Denver Center
06:13PM 40.1028 -108.7242 273° West 384 442 38,000  Level Denver Center
06:14PM 40.1078 -108.8561 273° West 383 441 38,000  Level Denver Center
06:15PM 40.1097 -108.9228 272° West 383 441 38,000  Level Salt Lake Center
06:16PM 40.1158 -109.0772 273° West 383 441 38,000  Level Salt Lake Center
06:16PM 40.1181 -109.1439 273° West 385 443 38,000  Level Denver Center
06:17PM 40.1236 -109.3014 273° West 390 449 38,000 -360 Level Denver Center
06:18PM 40.1261 -109.3678 273° West 388 447 37,500 -1,200 Descending Salt Lake Center
06:19PM 40.1308 -109.5033 273° West 390 449 36,200 -1,320 Descending Salt Lake Center
06:20PM 40.1353 -109.6603 272° West 388 447 34,900 -1,140 Descending Salt Lake Center
06:21PM 40.1397 -109.7936 273° West 386 444 33,900 -1,020 Descending Salt Lake Center
06:22PM 40.1436 -109.9244 272° West 380 437 32,900 -1,020 Descending Salt Lake Center
06:23PM 40.1481 -110.0786 272° West 379 436 31,900 -960 Descending Salt Lake Center
06:24PM 40.1492 -110.2083 271° West 375 432 31,000 -900 Descending Salt Lake Center
06:25PM 40.1458 -110.3589 268° West 372 428 30,100 -540 Descending Salt Lake Center
06:26PM 40.1456 -110.4883 270° West 371 427 30,000 -60 Descending Salt Lake Center
06:27PM 40.1444 -110.6428 270° West 380 437 30,000  Level Salt Lake Center
06:28PM 40.1425 -110.7747 269° West 381 438 30,000 -780 Level Salt Lake Center
06:29PM 40.1422 -110.9306 270° West 384 442 28,400 -1,680 Descending Salt Lake Center
06:30PM 40.1400 -111.0561 269° West 388 447 26,600 -1,920 Descending Salt Lake Center
06:31PM 40.1378 -111.1956 269° West 384 442 24,500 -2,040 Descending Salt Lake Center
06:32PM 40.1358 -111.3319 269° West 376 433 22,400 -2,280 Descending Salt Lake Center
06:33PM 40.1331 -111.4922 269° West 368 423 19,900 -2,160 Descending Salt Lake Center
06:34PM 40.1333 -111.5633 270° West 347 399 19,100 -900 Descending Salt Lake Center
06:34PM 40.1558 -111.6119 301° West 347 399 19,000 -120 Descending Salt Lake Center
06:35PM 40.1750 -111.6839 289° West 347 399 19,000 -720 Level Salt Lake Center
06:35PM 40.1972 -111.7256 305° West 346 398 18,300 -1,320 Descending Salt Lake Center
06:36PM 40.2189 -111.7956 292° West 343 395 17,700 -780 Descending Salt Lake Center
06:36PM 40.2383 -111.8394 300° West 345 397 17,500 -600 Descending Salt Lake Center
06:37PM 40.2553 -111.8928 293° West 342 394 17,200 -600 Descending Salt Lake Center
06:37PM 40.2872 -111.9472 308° West 346 398 16,900 -900 Descending Salt Lake Center
06:38PM 40.3278 -111.9864 324° Northwest 363 418 16,300 -1,260 Descending Salt Lake Center
06:38PM 40.3750 -112.0150 335° Northwest 363 418 15,600 -1,320 Descending Salt Lake Center
06:39PM 40.4156 -112.0494 327° Northwest 362 417 15,000 -1,560 Descending Salt Lake Center
06:39PM 40.4697 -112.0569 354° North 371 427 14,000 -1,920 Descending Salt Lake Center
06:40PM 40.5178 -112.0658 352° North 364 419 13,100 -1,800 Descending Salt Lake Center
06:40PM 40.5711 -112.0697 357° North 365 420 12,200 -1,920 Descending Salt Lake Center
06:41PM 40.6194 -112.0794 351° North 362 417 11,200 -1,200 Descending Salt Lake Center
06:41PM 40.6875 -112.0853 356° North 349 402 11,000 -240 Descending Salt Lake Center
06:42PM 40.7142 -112.0900 352° North 317 365 11,000  Level Salt Lake Center
06:42PM 40.7656 -112.0931 357° North 280 322 11,000  Level Salt Lake Center
06:43PM 40.7869 -112.0992 348° North 265 305 11,000 -540 Level Salt Lake Center
06:43PM 40.8358 -112.1025 357° North 254 292 10,500 -900 Descending Salt Lake Center
06:44PM 40.8572 -112.1067 352° North 249 287 10,100 -1,260 Descending Salt Lake Center
06:44PM 40.9053 -112.1103 357° North 250 288 9,200 -1,020 Descending Salt Lake Center
06:45PM 40.9342 -112.1147 353° North 253 291 9,000 -540 Descending Salt Lake Center
06:45PM 40.9714 -112.1111 North 235 270 8,700 -960 Descending Salt Lake Center
06:46PM 40.9792 -112.0433 81° East 205 236 7,400 -1,260 Descending Salt Lake Center
06:47PM 40.9617 -112.0231 139° Southeast 198 228 7,000 -900 Descending Salt Lake Center
06:48PM 40.9333 -112.0142 167° South 192 221 6,500 -1,020 Descending Salt Lake Center
06:48PM 40.9078 -112.0131 178° South 196 226 6,000 -1,140 Descending Salt Lake Center
06:49PM 40.8725 -112.0069 173° South 178 205 5,400 -840 Descending Salt Lake Center
06:49PM 40.8614 -112.0061 177° South 165 190 5,200 -600 Descending Salt Lake Center
06:50PM 40.8361 -112.0025 174° South 132 152 4,800 -600 Descending Salt Lake Center
06:50PM 40.8264 -112.0039 186° South 127 146 4,600 -600 Descending Salt Lake Center
06:51PM 40.8019 -111.9986 171° South 124 143 4,200 -540 Descending Salt Lake Center
06:53PM 40.7884 -111.9778 135° Southeast  Level Estimated